Time;durP1;ratioP1;P1;durP2;ratioP2;P2;SDS_P1;SDS_P2;PMS_P1;PMS_P2;Temp;Humidity;BMP_temperature;BMP_pressure;BME280_temperature;BME280_humidity;BME280_pressure;Samples;Min_cycle;Max_cycle;Signal;HPM_P1;HPM_P2
2022/03/31 00:00:10;;;;;;;5.88;3.38;;;20.80;46.00;;;;;;4978603;28;20044;-76
2022/03/31 00:02:37;;;;;;;6.55;3.53;;;20.80;45.90;;;;;;5011445;28;20026;-76
2022/03/31 00:05:03;;;;;;;6.90;3.40;;;20.80;45.90;;;;;;4994672;28;20439;-75
2022/03/31 00:07:30;;;;;;;6.05;3.03;;;20.80;45.80;;;;;;4978517;28;20364;-75
2022/03/31 00:09:55;;;;;;;6.35;3.50;;;20.80;45.70;;;;;;4994563;28;20026;-75
2022/03/31 00:12:21;;;;;;;6.65;3.42;;;20.80;45.70;;;;;;5011842;28;20041;-75
2022/03/31 00:14:47;;;;;;;5.53;3.08;;;20.80;45.60;;;;;;4994427;28;20080;-75
2022/03/31 00:17:13;;;;;;;6.55;3.53;;;20.80;45.60;;;;;;5011914;28;20026;-75
2022/03/31 00:19:39;;;;;;;5.82;3.20;;;20.80;45.60;;;;;;4994487;28;20042;-75
2022/03/31 00:22:05;;;;;;;6.38;3.08;;;20.80;45.60;;;;;;4994145;28;20029;-74
2022/03/31 00:24:31;;;;;;;5.20;3.17;;;20.80;45.50;;;;;;5011991;28;20034;-75
2022/03/31 00:26:57;;;;;;;5.22;3.10;;;20.80;45.50;;;;;;5011565;28;20030;-75
2022/03/31 00:29:22;;;;;;;8.23;3.40;;;20.80;45.50;;;;;;4994318;28;20021;-74
2022/03/31 00:31:48;;;;;;;5.13;3.20;;;20.80;45.50;;;;;;4994089;28;20041;-75
2022/03/31 00:34:14;;;;;;;5.72;3.33;;;20.80;45.50;;;;;;4977793;28;20026;-75
2022/03/31 00:36:40;;;;;;;7.03;2.90;;;20.80;45.50;;;;;;5011613;28;20049;-74
2022/03/31 00:41:50;;;;;;;4.93;3.00;;;20.80;45.40;;;;;;5011290;28;20026;-75
2022/03/31 00:44:15;;;;;;;5.82;3.05;;;20.80;45.30;;;;;;5011324;28;20041;-76
2022/03/31 00:46:49;;;;;;;5.60;3.17;;;20.80;45.30;;;;;;5011629;28;20497;-75
2022/03/31 00:49:16;;;;;;;5.03;3.03;;;20.80;45.30;;;;;;4994204;28;20646;-75
2022/03/31 00:51:42;;;;;;;6.40;3.42;;;20.80;45.30;;;;;;5011355;28;20030;-75
2022/03/31 00:54:08;;;;;;;4.93;3.03;;;20.80;45.30;;;;;;5011116;28;20026;-75
2022/03/31 00:56:34;;;;;;;5.25;2.67;;;20.80;45.30;;;;;;5011456;28;20030;-76
2022/03/31 00:59:01;;;;;;;5.68;3.10;;;20.80;45.20;;;;;;4993897;28;20084;-75
2022/03/31 01:01:27;;;;;;;5.05;3.10;;;20.80;45.20;;;;;;4993856;28;20022;-76
2022/03/31 01:03:53;;;;;;;5.15;2.80;;;20.70;45.10;;;;;;5011110;28;20105;-74
2022/03/31 01:06:19;;;;;;;5.05;3.22;;;20.70;45.10;;;;;;4977837;28;20050;-75
2022/03/31 01:08:45;;;;;;;5.55;3.10;;;20.80;45.10;;;;;;4993866;28;20383;-75
2022/03/31 01:11:11;;;;;;;5.32;2.80;;;20.80;45.10;;;;;;4993748;28;20068;-75
2022/03/31 01:13:37;;;;;;;5.93;3.00;;;20.80;45.00;;;;;;4994069;28;20065;-75
2022/03/31 01:16:03;;;;;;;4.35;2.80;;;20.80;45.00;;;;;;4997713;28;20502;-75
2022/03/31 01:18:28;;;;;;;5.03;3.10;;;20.80;44.90;;;;;;5015309;28;20034;-75
2022/03/31 01:20:54;;;;;;;4.80;2.78;;;20.80;44.90;;;;;;5015077;28;20022;-75
2022/03/31 01:23:21;;;;;;;5.38;2.92;;;20.80;44.90;;;;;;5014677;28;20112;-75
2022/03/31 01:25:47;;;;;;;4.47;2.90;;;20.80;44.80;;;;;;5015178;28;20037;-75
2022/03/31 01:28:12;;;;;;;4.80;3.08;;;20.80;44.70;;;;;;5014898;28;20017;-75
2022/03/31 01:30:38;;;;;;;4.53;2.88;;;20.80;44.70;;;;;;4997527;28;20476;-75
2022/03/31 01:33:04;;;;;;;4.72;3.15;;;20.80;44.70;;;;;;4997189;28;20045;-74
2022/03/31 01:35:29;;;;;;;5.45;2.80;;;20.80;44.70;;;;;;5014801;28;20051;-75
2022/03/31 01:37:55;;;;;;;5.05;2.90;;;20.80;44.70;;;;;;4981157;28;20065;-75
2022/03/31 01:40:21;;;;;;;5.82;3.22;;;20.80;44.70;;;;;;4997334;28;20036;-75
2022/03/31 01:42:47;;;;;;;5.55;3.17;;;20.80;44.60;;;;;;5014236;28;20030;-75
2022/03/31 01:45:14;;;;;;;4.85;3.00;;;20.80;44.70;;;;;;5014466;28;20454;-75
2022/03/31 01:47:40;;;;;;;4.53;2.75;;;20.70;44.60;;;;;;4981110;28;20386;-75
2022/03/31 01:50:10;;;;;;;4.63;3.10;;;20.70;44.60;;;;;;5014760;28;20502;-75
2022/03/31 01:52:37;;;;;;;4.78;3.00;;;20.70;44.60;;;;;;4996753;28;20080;-74
2022/03/31 01:55:04;;;;;;;5.55;2.90;;;20.70;44.60;;;;;;5014546;28;20026;-75
2022/03/31 01:57:31;;;;;;;5.03;3.20;;;20.70;44.50;;;;;;5014501;28;20030;-75
2022/03/31 02:00:02;;;;;;;6.43;3.08;;;20.70;44.50;;;;;;5014441;28;20509;-74
2022/03/31 02:02:30;;;;;;;4.60;2.90;;;20.70;44.50;;;;;;5013943;28;20037;-75
2022/03/31 02:04:56;;;;;;;4.07;2.67;;;20.70;44.50;;;;;;4980802;28;20062;-75
2022/03/31 02:07:22;;;;;;;4.25;2.67;;;20.70;44.50;;;;;;5014249;28;20505;-75
2022/03/31 02:09:47;;;;;;;5.10;2.80;;;20.70;44.40;;;;;;5014276;28;20117;-76
2022/03/31 02:12:13;;;;;;;4.13;2.72;;;20.70;44.40;;;;;;5014046;28;20060;-75
2022/03/31 02:14:40;;;;;;;4.65;2.90;;;20.70;44.40;;;;;;4996460;28;20034;-76
2022/03/31 02:17:07;;;;;;;4.97;2.95;;;20.70;44.30;;;;;;5014049;28;20034;-76
2022/03/31 02:19:34;;;;;;;4.70;2.50;;;20.70;44.30;;;;;;5013982;28;20445;-76
2022/03/31 02:21:59;;;;;;;4.18;2.40;;;20.70;44.30;;;;;;5013631;28;20160;-76
2022/03/31 02:24:25;;;;;;;3.70;2.58;;;20.70;44.30;;;;;;5013590;28;20109;-76
2022/03/31 02:26:51;;;;;;;4.80;2.90;;;20.70;44.20;;;;;;4980345;28;20498;-76
2022/03/31 02:29:18;;;;;;;4.43;2.78;;;20.70;44.20;;;;;;4996412;28;20022;-76
2022/03/31 02:31:46;;;;;;;3.50;2.47;;;20.80;44.20;;;;;;4996363;28;20033;-76
2022/03/31 02:34:13;;;;;;;5.07;2.85;;;20.80;44.20;;;;;;4996282;28;20052;-76
2022/03/31 02:36:40;;;;;;;3.90;2.58;;;20.80;44.20;;;;;;5013779;28;20113;-76
2022/03/31 02:39:06;;;;;;;5.05;2.80;;;20.70;44.10;;;;;;5013626;28;20040;-76
2022/03/31 02:41:32;;;;;;;4.13;2.60;;;20.70;44.10;;;;;;5013545;28;20088;-76
2022/03/31 02:43:58;;;;;;;4.75;2.88;;;20.70;44.00;;;;;;5013308;28;20034;-76
2022/03/31 02:46:26;;;;;;;6.35;2.72;;;20.70;44.10;;;;;;4979929;28;20033;-76
2022/03/31 02:48:53;;;;;;;5.03;2.60;;;20.70;44.00;;;;;;5013591;28;20088;-76
2022/03/31 02:51:19;;;;;;;4.32;2.70;;;20.70;44.00;;;;;;5013621;28;20033;-76
2022/03/31 02:56:30;;;;;;;3.97;2.28;;;20.70;44.00;;;;;;4996381;28;20087;-76
2022/03/31 02:58:56;;;;;;;4.25;2.72;;;20.70;44.00;;;;;;5013371;28;20025;-76
2022/03/31 03:01:22;;;;;;;3.47;2.35;;;20.70;44.00;;;;;;4995734;28;20394;-76
2022/03/31 03:03:50;;;;;;;4.38;2.67;;;20.70;44.00;;;;;;4995431;28;20028;-76
2022/03/31 03:06:16;;;;;;;4.35;2.70;;;20.70;43.90;;;;;;4995771;28;20037;-76
2022/03/31 03:08:41;;;;;;;3.53;2.25;;;20.70;43.90;;;;;;4995633;28;20021;-76
2022/03/31 03:11:08;;;;;;;4.30;2.53;;;20.70;43.90;;;;;;5013224;28;20030;-76
2022/03/31 03:13:35;;;;;;;4.45;2.40;;;20.60;43.90;;;;;;4995297;28;20407;-76
2022/03/31 03:16:06;;;;;;;3.75;2.40;;;20.70;43.90;;;;;;5012962;28;20037;-76
2022/03/31 03:18:32;;;;;;;272.77;167.45;;;20.70;44.50;;;;;;5012958;28;20026;-76
2022/03/31 03:20:57;;;;;;;4.65;2.63;;;20.70;43.90;;;;;;4995477;28;20513;-76
2022/03/31 03:23:23;;;;;;;4.30;2.50;;;20.70;43.80;;;;;;5012638;28;20105;-75
2022/03/31 03:25:49;;;;;;;4.13;2.45;;;20.70;43.80;;;;;;5012763;28;20044;-76
2022/03/31 03:28:14;;;;;;;4.53;2.63;;;20.70;44.40;;;;;;4995309;28;20056;-76
2022/03/31 03:30:40;;;;;;;4.40;2.40;;;20.70;43.80;;;;;;4995361;28;20037;-76
2022/03/31 03:33:06;;;;;;;4.47;2.47;;;20.70;43.70;;;;;;4995066;28;20549;-75
2022/03/31 03:35:32;;;;;;;3.90;2.45;;;20.70;43.70;;;;;;5012453;28;20022;-76
2022/03/31 03:37:58;;;;;;;3.92;2.55;;;20.70;43.70;;;;;;5012025;28;20026;-76
2022/03/31 03:40:25;;;;;;;3.55;2.38;;;20.70;43.70;;;;;;5012571;28;20034;-76
2022/03/31 03:42:53;;;;;;;3.65;2.42;;;20.70;43.60;;;;;;4994579;28;20564;-76
2022/03/31 03:45:19;;;;;;;4.40;2.45;;;20.70;43.60;;;;;;5012348;28;20045;-76
2022/03/31 03:47:45;;;;;;;3.72;2.40;;;20.70;43.60;;;;;;5012443;28;20030;-76
2022/03/31 03:50:11;;;;;;;4.32;2.50;;;20.70;43.60;;;;;;4995007;28;20410;-76
2022/03/31 03:52:37;;;;;;;3.95;2.50;;;20.70;43.60;;;;;;5012217;28;20560;-76
2022/03/31 03:55:04;;;;;;;1060.10;479.45;;;20.70;43.60;;;;;;4978625;28;20107;-74
2022/03/31 03:57:30;;;;;;;16.92;3.45;;;20.70;43.60;;;;;;4994802;28;20109;-73
2022/03/31 03:59:56;;;;;;;18.75;3.30;;;20.80;44.40;;;;;;4994772;28;20117;-73
2022/03/31 04:02:22;;;;;;;5.60;2.70;;;20.80;44.20;;;;;;5011802;28;20026;-73
2022/03/31 04:04:48;;;;;;;7.60;2.60;;;20.70;44.50;;;;;;5012127;28;20536;-73
2022/03/31 04:07:13;;;;;;;4.28;2.03;;;20.70;44.60;;;;;;5012145;28;20044;-73
2022/03/31 04:09:39;;;;;;;8.68;2.75;;;20.70;44.80;;;;;;5012106;28;20478;-73
2022/03/31 04:12:05;;;;;;;5.63;2.65;;;20.70;44.80;;;;;;4994419;28;20042;-73
2022/03/31 04:14:31;;;;;;;6.53;2.63;;;20.70;44.80;;;;;;5012057;28;20030;-73
2022/03/31 04:16:56;;;;;;;10.10;2.53;;;20.70;44.70;;;;;;4994341;28;20044;-73
2022/03/31 04:19:22;;;;;;;7.57;2.85;;;20.70;44.70;;;;;;4994288;28;20029;-73
2022/03/31 04:21:49;;;;;;;5.15;2.25;;;20.70;44.70;;;;;;4977892;28;20480;-73
2022/03/31 04:24:14;;;;;;;9.68;2.92;;;20.70;44.60;;;;;;4994171;28;20030;-73
2022/03/31 04:26:40;;;;;;;9.80;2.80;;;20.70;44.60;;;;;;4994317;28;20386;-73
2022/03/31 04:29:08;;;;;;;7.60;2.30;;;20.70;44.50;;;;;;4994500;28;20029;-73
2022/03/31 04:31:43;;;;;;;4.95;2.50;;;20.60;44.40;;;;;;4994029;28;20022;-73
2022/03/31 04:34:15;;;;;;;9.20;2.72;;;20.60;44.40;;;;;;5011424;28;20111;-73
2022/03/31 04:36:42;;;;;;;10.32;2.58;;;20.60;44.30;;;;;;5011769;28;20018;-73
2022/03/31 04:39:08;;;;;;;81.57;41.13;;;20.70;44.40;;;;;;4994259;28;20026;-74
2022/03/31 04:41:34;;;;;;;6.90;3.00;;;20.60;44.20;;;;;;5011481;28;20026;-73
2022/03/31 04:43:59;;;;;;;5.57;2.70;;;20.70;44.30;;;;;;4993575;28;20037;-72
2022/03/31 04:46:25;;;;;;;4.22;2.17;;;20.70;44.20;;;;;;5011744;28;20033;-73
2022/03/31 04:48:51;;;;;;;6.45;2.30;;;20.70;44.20;;;;;;5011487;28;20509;-73
2022/03/31 04:51:17;;;;;;;6.68;3.05;;;20.70;44.20;;;;;;4993946;28;20026;-73
2022/03/31 04:53:42;;;;;;;4.88;2.20;;;20.70;44.20;;;;;;4993658;28;20391;-73
2022/03/31 04:56:08;;;;;;;5.53;2.38;;;20.70;44.20;;;;;;5011377;28;20116;-73
2022/03/31 04:58:36;;;;;;;6.32;2.90;;;20.60;44.10;;;;;;4993876;28;20029;-73
2022/03/31 05:01:02;;;;;;;5.63;2.40;;;20.70;44.10;;;;;;5011337;28;20410;-72
2022/03/31 05:03:28;;;;;;;4.65;2.28;;;20.60;44.00;;;;;;5011017;28;20026;-73
2022/03/31 05:05:54;;;;;;;5.15;2.58;;;20.70;44.00;;;;;;4993631;28;20029;-73
2022/03/31 05:08:19;;;;;;;4.07;2.40;;;20.60;44.00;;;;;;5011483;28;20026;-73
2022/03/31 05:10:45;;;;;;;4.90;2.63;;;20.60;44.00;;;;;;4993997;28;20022;-72
2022/03/31 05:13:12;;;;;;;7.18;2.40;;;20.70;44.00;;;;;;5010971;28;20061;-73
2022/03/31 05:15:38;;;;;;;3.88;2.40;;;20.60;43.90;;;;;;4994074;28;20053;-73
2022/03/31 05:18:03;;;;;;;5.93;2.60;;;20.60;43.90;;;;;;4993991;28;20032;-73
2022/03/31 05:20:29;;;;;;;3.92;2.20;;;20.60;43.90;;;;;;4993913;28;20109;-74
2022/03/31 05:22:55;;;;;;;3.97;2.33;;;20.60;43.90;;;;;;5010886;28;20129;-74
2022/03/31 05:25:21;;;;;;;4.55;2.40;;;20.60;43.80;;;;;;5011268;28;20028;-73
2022/03/31 05:27:48;;;;;;;10.95;2.67;;;20.60;43.80;;;;;;4993443;28;20021;-74
2022/03/31 05:30:18;;;;;;;5.03;2.65;;;20.60;43.70;;;;;;5011194;28;20057;-74
2022/03/31 05:32:48;;;;;;;5.45;2.40;;;20.60;43.80;;;;;;4993592;28;20118;-74
2022/03/31 05:35:14;;;;;;;6.78;2.50;;;20.60;43.70;;;;;;5011087;28;20026;-74
2022/03/31 05:37:41;;;;;;;5.40;2.53;;;20.60;43.60;;;;;;5011509;28;20441;-74
2022/03/31 05:40:08;;;;;;;5.15;2.70;;;20.60;43.60;;;;;;5011054;28;20029;-74
2022/03/31 05:42:35;;;;;;;4.70;2.58;;;20.60;43.60;;;;;;4992962;28;20066;-73
2022/03/31 05:45:03;;;;;;;4.13;2.60;;;20.60;43.60;;;;;;4993164;28;20029;-74
2022/03/31 05:47:29;;;;;;;6.32;2.60;;;20.60;43.60;;;;;;4993781;28;20038;-74
2022/03/31 05:49:55;;;;;;;4.28;2.40;;;20.60;43.60;;;;;;4993529;28;20022;-74
2022/03/31 05:52:21;;;;;;;6.20;2.67;;;20.60;43.50;;;;;;5011020;28;20030;-74
2022/03/31 05:54:50;;;;;;;4.70;2.53;;;20.60;43.50;;;;;;5010889;28;20026;-74
2022/03/31 05:57:17;;;;;;;4.00;2.20;;;20.60;43.50;;;;;;5010811;28;20140;-74
2022/03/31 05:59:43;;;;;;;5.43;2.45;;;20.60;43.50;;;;;;4994487;28;20029;-74
2022/03/31 06:02:11;;;;;;;6.05;3.13;;;20.60;43.50;;;;;;5013994;28;20057;-74
2022/03/31 06:04:37;;;;;;;3.47;2.33;;;20.60;43.50;;;;;;5014207;28;20577;-74
2022/03/31 06:07:04;;;;;;;5.03;2.40;;;20.60;43.60;;;;;;4996939;28;20049;-74
2022/03/31 06:09:30;;;;;;;4.80;2.53;;;20.70;43.50;;;;;;5014277;28;20034;-74
2022/03/31 06:11:55;;;;;;;3.25;2.30;;;20.60;43.50;;;;;;4996570;28;20450;-74
2022/03/31 06:14:21;;;;;;;4.82;2.42;;;20.60;43.40;;;;;;4980659;28;20029;-74
2022/03/31 06:16:49;;;;;;;4.53;2.38;;;20.60;43.50;;;;;;4996736;28;20037;-74
2022/03/31 06:19:15;;;;;;;5.70;2.70;;;20.60;43.40;;;;;;4980692;28;20036;-74
2022/03/31 06:21:41;;;;;;;4.13;2.72;;;20.60;43.40;;;;;;4996532;28;20026;-74
2022/03/31 06:24:07;;;;;;;3.67;2.30;;;20.60;43.40;;;;;;4996040;28;20040;-74
2022/03/31 06:26:33;;;;;;;4.03;2.50;;;20.60;43.30;;;;;;4980340;28;20030;-74
2022/03/31 06:28:59;;;;;;;4.63;2.63;;;20.60;43.20;;;;;;5013903;28;20088;-74
2022/03/31 06:31:26;;;;;;;6.15;2.50;;;20.60;43.30;;;;;;5013790;28;20018;-74
2022/03/31 06:33:53;;;;;;;4.97;2.80;;;20.60;43.20;;;;;;4996295;28;20390;-74
2022/03/31 06:36:19;;;;;;;4.55;2.30;;;20.60;43.20;;;;;;4996220;28;20026;-74
2022/03/31 06:38:46;;;;;;;5.32;2.75;;;20.60;43.20;;;;;;5013671;28;20029;-74
2022/03/31 06:41:15;;;;;;;5.28;2.90;;;20.60;43.10;;;;;;4980152;28;20117;-74
2022/03/31 06:43:44;;;;;;;7.22;2.53;;;20.60;43.10;;;;;;5013360;28;20034;-74
2022/03/31 06:46:11;;;;;;;6.32;2.60;;;20.60;43.10;;;;;;4996095;28;20029;-74
2022/03/31 06:48:41;;;;;;;5.60;2.63;;;20.60;43.00;;;;;;5013680;28;20022;-74
2022/03/31 06:51:08;;;;;;;;;;;20.60;43.00;;;;;;5013858;28;20026;-74
2022/03/31 06:53:44;;;;;;;4.68;2.83;;;20.60;43.00;;;;;;4996147;28;19914;-74
2022/03/31 06:56:13;;;;;;;5.63;2.90;;;20.60;42.90;;;;;;4995916;28;20025;-74
2022/03/31 06:58:39;;;;;;;4.25;2.60;;;20.60;43.00;;;;;;4979566;28;20494;-74
2022/03/31 07:01:06;;;;;;;5.15;2.67;;;20.60;43.00;;;;;;4979467;28;20044;-74
2022/03/31 07:03:31;;;;;;;4.95;2.67;;;20.60;42.80;;;;;;5013276;28;20030;-74
2022/03/31 07:05:57;;;;;;;4.28;2.42;;;20.60;42.80;;;;;;4979517;28;20037;-74
2022/03/31 07:08:23;;;;;;;5.72;2.80;;;20.70;42.90;;;;;;4995726;28;20411;-74
2022/03/31 07:10:49;;;;;;;5.00;2.70;;;20.70;42.80;;;;;;4978877;28;20034;-74
2022/03/31 07:13:16;;;;;;;5.20;2.70;;;20.70;42.80;;;;;;4994759;28;20339;-74
2022/03/31 07:15:42;;;;;;;4.75;2.65;;;20.70;42.80;;;;;;4963616;28;20402;-74
2022/03/31 07:18:08;;;;;;;3.60;2.55;;;20.70;42.90;;;;;;4995485;28;20508;-74
2022/03/31 07:20:34;;;;;;;4.78;2.80;;;20.70;42.80;;;;;;5013035;28;20108;-74
2022/03/31 07:23:01;;;;;;;5.45;2.90;;;20.70;42.80;;;;;;4995106;28;20113;-74
2022/03/31 07:25:27;;;;;;;5.70;2.95;;;20.70;42.70;;;;;;5012861;28;20390;-74
2022/03/31 07:27:54;;;;;;;6.15;2.97;;;20.70;42.80;;;;;;5012714;28;20022;-74
2022/03/31 07:30:21;;;;;;;5.07;2.85;;;20.80;42.80;;;;;;5012707;28;20042;-74
2022/03/31 07:32:56;;;;;;;7.28;3.20;;;20.70;42.60;;;;;;5012343;28;20038;-74
2022/03/31 07:35:24;;;;;;;4.60;2.65;;;20.80;42.70;;;;;;5012647;28;20426;-74
2022/03/31 07:37:51;;;;;;;5.03;2.80;;;20.80;42.80;;;;;;5012584;28;20026;-74
2022/03/31 07:40:18;;;;;;;2.97;2.28;;;20.80;42.80;;;;;;5012670;28;20037;-74
2022/03/31 07:42:44;;;;;;;5.53;3.05;;;20.80;42.80;;;;;;4994553;28;20092;-74
2022/03/31 07:45:11;;;;;;;5.38;2.97;;;20.80;42.70;;;;;;4995028;28;20036;-74
2022/03/31 07:47:41;;;;;;;4.78;2.90;;;20.80;42.70;;;;;;4994873;28;20025;-74
2022/03/31 07:50:09;;;;;;;;;;;20.80;42.60;;;;;;5012978;28;20112;-74
2022/03/31 07:52:38;;;;;;;4.43;2.70;;;20.80;42.60;;;;;;4978475;28;20362;-74
2022/03/31 07:55:06;;;;;;;4.32;2.72;;;20.80;42.60;;;;;;4994964;28;20036;-74
2022/03/31 07:57:32;;;;;;;5.07;2.95;;;20.80;42.60;;;;;;4994823;28;20030;-74
2022/03/31 07:59:58;;;;;;;5.75;2.97;;;20.90;42.60;;;;;;5012283;28;20029;-73
2022/03/31 08:02:26;;;;;;;4.45;2.92;;;20.80;42.70;;;;;;5011812;28;20123;-74
2022/03/31 08:04:55;;;;;;;5.05;2.83;;;20.80;42.60;;;;;;4994423;28;20497;-74
2022/03/31 08:07:20;;;;;;;5.30;2.80;;;20.80;42.60;;;;;;5012180;28;20025;-74
2022/03/31 08:09:46;;;;;;;5.55;2.97;;;20.90;42.60;;;;;;4994826;28;20037;-74
2022/03/31 08:12:12;;;;;;;4.22;2.75;;;20.90;42.60;;;;;;5011713;28;20030;-74
2022/03/31 08:14:37;;;;;;;4.85;2.88;;;20.90;42.70;;;;;;4994502;28;20057;-74
2022/03/31 08:17:03;;;;;;;4.82;3.13;;;20.90;42.70;;;;;;4994483;28;20061;-74
2022/03/31 08:19:30;;;;;;;4.30;2.88;;;20.90;42.60;;;;;;5012074;28;20025;-74
2022/03/31 08:21:56;;;;;;;556.65;267.15;;;20.90;42.60;;;;;;5011423;28;20049;-74
2022/03/31 08:24:23;;;;;;;4.18;2.47;;;21.00;42.70;;;;;;5011727;28;20022;-74
2022/03/31 08:26:50;;;;;;;261.90;208.80;;;21.00;42.70;;;;;;4994147;28;20494;-74
2022/03/31 08:29:17;;;;;;;331.50;183.40;;;21.00;42.70;;;;;;4994542;28;20050;-74
2022/03/31 08:31:43;;;;;;;1215.22;897.80;;;21.00;42.90;;;;;;5012139;28;20049;-74
2022/03/31 08:34:09;;;;;;;112.35;85.68;;;21.00;42.70;;;;;;5011509;28;20116;-74
2022/03/31 08:36:35;;;;;;;4.18;2.78;;;21.00;42.90;;;;;;5011713;28;20446;-74
2022/03/31 08:39:01;;;;;;;259.27;124.72;;;21.00;42.90;;;;;;5012051;28;20022;-74
2022/03/31 08:41:28;;;;;;;62.70;30.98;;;21.00;42.90;;;;;;4994373;28;20033;-74
2022/03/31 08:43:54;;;;;;;4.70;2.83;;;21.00;42.90;;;;;;4993563;28;20030;-73
2022/03/31 08:46:22;;;;;;;4.32;2.70;;;21.00;43.00;;;;;;5011443;28;20037;-74
2022/03/31 08:48:48;;;;;;;3.67;2.70;;;21.00;42.90;;;;;;4994120;28;20022;-74
2022/03/31 08:51:14;;;;;;;4.90;2.60;;;21.00;42.90;;;;;;5011555;28;20414;-74
2022/03/31 08:53:40;;;;;;;799.17;467.75;;;21.00;42.90;;;;;;4993358;28;20406;-74
2022/03/31 08:56:08;;;;;;;4.43;2.58;;;21.00;42.90;;;;;;4977759;28;20037;-73
2022/03/31 08:58:34;;;;;;;4.20;2.63;;;21.00;42.90;;;;;;4994021;28;20038;-74
2022/03/31 09:01:00;;;;;;;4.38;2.63;;;21.00;42.90;;;;;;5011424;28;20608;-74
2022/03/31 09:03:37;;;;;;;5.47;2.97;;;21.10;43.00;;;;;;4993579;28;20034;-74
2022/03/31 09:06:04;;;;;;;553.15;415.75;;;21.10;42.90;;;;;;4993647;28;20441;-74
2022/03/31 09:08:33;;;;;;;297.27;267.35;;;21.10;43.00;;;;;;4993838;28;20034;-73
2022/03/31 09:11:00;;;;;;;4.47;2.50;;;21.10;43.00;;;;;;4993921;28;20068;-74
2022/03/31 09:13:40;;;;;;;618.33;452.63;;;21.00;42.90;;;;;;5010760;28;20541;-74
2022/03/31 09:16:11;;;;;;;6.18;2.88;;;21.10;43.00;;;;;;5011511;28;20033;-74
2022/03/31 09:18:39;;;;;;;4.28;2.70;;;21.10;43.00;;;;;;4993504;28;20113;-74
2022/03/31 09:21:08;;;;;;;29.50;26.13;;;21.10;43.00;;;;;;4993851;28;20034;-73
2022/03/31 09:23:46;;;;;;;4.15;2.83;;;21.10;43.00;;;;;;5010725;28;20129;-73
2022/03/31 09:26:14;;;;;;;4.15;2.72;;;21.10;43.00;;;;;;4993651;28;20034;-73
2022/03/31 09:28:43;;;;;;;5.53;2.70;;;21.10;43.00;;;;;;4993553;28;20080;-73
2022/03/31 09:31:10;;;;;;;4.07;2.53;;;21.10;43.00;;;;;;4993712;28;20482;-73
2022/03/31 09:33:39;;;;;;;505.60;300.23;;;21.10;42.90;;;;;;4993001;28;20066;-73
2022/03/31 09:36:06;;;;;;;4.18;2.80;;;21.10;42.90;;;;;;4996488;28;20467;-73
2022/03/31 09:38:36;;;;;;;4.32;2.72;;;21.10;42.90;;;;;;5014849;28;20030;-73
2022/03/31 09:41:04;;;;;;;4.53;2.53;;;21.20;43.00;;;;;;4997409;28;20045;-72
2022/03/31 09:43:40;;;;;;;150.75;136.15;;;21.20;43.00;;;;;;5014287;28;20084;-73
2022/03/31 09:46:17;;;;;;;4.18;2.60;;;21.10;42.90;;;;;;5014579;28;20034;-72
2022/03/31 09:48:43;;;;;;;4.07;2.60;;;21.20;43.00;;;;;;5014638;28;20045;-72
2022/03/31 09:51:09;;;;;;;4.18;2.67;;;21.10;42.90;;;;;;5015280;28;20439;-72
2022/03/31 09:53:35;;;;;;;4.72;2.80;;;21.10;43.00;;;;;;4996799;28;20494;-72
2022/03/31 09:56:01;;;;;;;4.32;2.60;;;21.10;43.60;;;;;;4981039;28;20128;-72
2022/03/31 09:58:27;;;;;;;3.63;2.55;;;21.20;43.00;;;;;;4996962;28;20022;-73
2022/03/31 10:00:54;;;;;;;4.78;2.50;;;21.20;43.00;;;;;;4996899;28;20030;-73
2022/03/31 10:03:21;;;;;;;3.80;2.38;;;21.20;43.00;;;;;;5013976;28;20044;-73
2022/03/31 10:05:47;;;;;;;4.13;2.58;;;21.20;43.00;;;;;;4980760;28;20410;-73
2022/03/31 10:08:13;;;;;;;5.05;2.67;;;21.20;43.00;;;;;;4996754;28;20030;-73
2022/03/31 10:10:40;;;;;;;5.35;3.00;;;21.10;43.00;;;;;;5014491;28;20029;-73
2022/03/31 10:13:17;;;;;;;4.68;2.80;;;21.20;43.00;;;;;;4996431;28;20478;-73
2022/03/31 10:15:45;;;;;;;4.57;2.60;;;21.10;43.00;;;;;;5014175;28;20042;-72
2022/03/31 10:18:15;;;;;;;5.28;3.05;;;21.20;43.10;;;;;;4996685;28;20105;-72
2022/03/31 10:20:53;;;;;;;4.20;2.80;;;21.10;43.00;;;;;;4996424;28;20033;-73
2022/03/31 10:26:03;;;;;;;5.05;2.65;;;21.20;43.10;;;;;;4980418;28;20391;-73
2022/03/31 10:28:29;;;;;;;166.68;108.13;;;21.20;43.10;;;;;;5014063;28;20183;-73
2022/03/31 10:31:07;;;;;;;4.78;3.05;;;21.20;43.10;;;;;;5014083;28;20076;-73
2022/03/31 10:33:38;;;;;;;6.07;3.40;;;21.20;43.10;;;;;;4996469;28;20100;-73
2022/03/31 10:36:12;;;;;;;6.18;3.10;;;21.20;43.20;;;;;;5013806;28;20061;-72
2022/03/31 10:38:51;;;;;;;3.70;2.55;;;21.20;43.10;;;;;;4996083;28;20018;-73
2022/03/31 10:41:17;;;;;;;4.00;2.70;;;21.10;43.10;;;;;;4996143;28;20495;-72
2022/03/31 10:43:47;;;;;;;5.95;3.00;;;21.20;43.10;;;;;;4995654;28;20030;-73
2022/03/31 10:46:15;;;;;;;5.85;2.88;;;21.20;43.20;;;;;;4964018;28;20501;-73
2022/03/31 10:48:49;;;;;;;5.70;2.95;;;21.20;43.20;;;;;;5013390;28;20076;-73
2022/03/31 10:51:14;;;;;;;5.05;3.13;;;21.20;43.10;;;;;;4979759;28;20398;-73
2022/03/31 10:53:47;;;;;;;4.32;2.67;;;21.20;43.10;;;;;;4979355;28;20064;-73
2022/03/31 10:56:25;;;;;;;4.82;2.75;;;21.20;43.10;;;;;;5013654;28;20050;-73
2022/03/31 10:58:53;;;;;;;6.47;2.70;;;21.10;43.10;;;;;;5013319;28;20034;-72
2022/03/31 11:01:20;;;;;;;3.97;2.67;;;21.20;43.20;;;;;;5013270;28;20045;-72
2022/03/31 11:03:47;;;;;;;4.03;2.50;;;21.20;43.20;;;;;;5012760;28;20079;-72
2022/03/31 11:06:13;;;;;;;4.43;2.92;;;21.10;43.20;;;;;;4995611;28;20026;-72
2022/03/31 11:08:49;;;;;;;4.15;2.80;;;21.10;43.20;;;;;;5013074;28;20034;-72
2022/03/31 11:11:22;;;;;;;5.68;2.80;;;21.10;43.20;;;;;;5013162;28;20026;-72
2022/03/31 11:13:50;;;;;;;4.30;2.95;;;21.10;43.20;;;;;;5012720;28;20113;-73
2022/03/31 11:16:16;;;;;;;4.28;2.80;;;21.10;43.20;;;;;;5013322;28;20080;-73
2022/03/31 11:18:51;;;;;;;5.03;3.15;;;21.10;43.20;;;;;;5013167;28;20113;-73
2022/03/31 11:21:17;;;;;;;3.53;2.70;;;21.10;43.10;;;;;;5013013;28;20037;-72
2022/03/31 11:23:47;;;;;;;4.63;2.70;;;21.10;43.20;;;;;;5012486;28;20038;-72
2022/03/31 11:26:27;;;;;;;3.92;2.75;;;21.20;43.20;;;;;;5012820;28;20398;-72
2022/03/31 11:28:53;;;;;;;5.07;3.10;;;21.10;43.20;;;;;;4995327;28;20033;-72
2022/03/31 11:31:20;;;;;;;3.88;2.70;;;21.10;43.20;;;;;;4979195;28;20033;-72
2022/03/31 11:33:46;;;;;;;4.80;3.05;;;21.20;43.20;;;;;;5012297;28;20479;-72
2022/03/31 11:36:12;;;;;;;4.13;2.60;;;21.10;43.20;;;;;;4995197;28;20034;-72
2022/03/31 11:38:39;;;;;;;4.70;2.45;;;21.10;43.20;;;;;;4995069;28;20026;-72
2022/03/31 11:41:05;;;;;;;5.13;2.45;;;21.10;43.30;;;;;;4994966;28;20041;-72
2022/03/31 11:43:32;;;;;;;4.13;2.75;;;21.10;43.30;;;;;;5012279;28;20030;-73
2022/03/31 11:45:58;;;;;;;5.55;3.03;;;21.10;43.30;;;;;;4994978;28;20030;-72
2022/03/31 11:48:41;;;;;;;6.07;2.97;;;21.10;43.40;;;;;;5012444;28;20022;-73
2022/03/31 11:51:09;;;;;;;4.55;2.65;;;21.10;43.30;;;;;;5012397;28;20041;-72
2022/03/31 11:53:40;;;;;;;506.88;458.48;;;21.00;43.30;;;;;;4994735;28;20033;-72
2022/03/31 11:56:10;;;;;;;5.50;3.10;;;21.00;43.30;;;;;;4994941;28;20037;-72
2022/03/31 11:59:09;;;;;;;1533.93;883.97;;;21.00;43.30;;;;;;5011873;28;20030;-71
2022/03/31 12:01:45;;;;;;;4.57;3.20;;;21.10;43.30;;;;;;5008629;28;20144;-72
2022/03/31 12:04:25;;;;;;;4.15;2.90;;;21.10;43.30;;;;;;4994549;28;20173;-72
2022/03/31 12:06:53;;;;;;;642.45;367.92;;;21.10;43.30;;;;;;5012309;28;20026;-73
2022/03/31 12:09:20;;;;;;;163.07;150.68;;;21.10;43.30;;;;;;5012027;28;20034;-72
2022/03/31 12:11:47;;;;;;;1109.05;603.78;;;21.10;43.20;;;;;;5011931;28;20079;-72
2022/03/31 12:14:13;;;;;;;5.07;2.70;;;21.10;43.20;;;;;;5011898;28;20032;-72
2022/03/31 12:16:47;;;;;;;5.97;3.28;;;21.00;43.10;;;;;;5011942;28;20030;-72
2022/03/31 12:19:13;;;;;;;5.03;3.15;;;21.00;43.00;;;;;;5011858;28;20026;-72
2022/03/31 12:21:53;;;;;;;5.45;3.15;;;21.00;43.00;;;;;;4978461;28;20036;-71
2022/03/31 12:24:19;;;;;;;;;;;21.00;43.10;;;;;;5012079;28;20044;-72
2022/03/31 12:26:56;;;;;;;5.40;2.90;;;21.00;43.00;;;;;;4978269;28;19963;-72
2022/03/31 12:29:24;;;;;;;5.55;3.28;;;21.00;43.10;;;;;;5011741;28;20022;-72
2022/03/31 12:32:10;;;;;;;5.20;3.22;;;21.00;43.00;;;;;;4993880;28;20397;-73
2022/03/31 12:34:52;;;;;;;5.95;3.10;;;21.00;43.00;;;;;;4994069;28;20030;-72
2022/03/31 12:37:33;;;;;;;4.80;3.13;;;20.90;43.00;;;;;;5011738;28;20380;-72
2022/03/31 12:39:59;;;;;;;6.13;3.35;;;21.00;43.10;;;;;;4994129;28;20386;-72
2022/03/31 12:42:26;;;;;;;4.25;3.00;;;20.90;43.10;;;;;;5011361;28;20030;-72
2022/03/31 12:44:54;;;;;;;7.97;2.88;;;20.90;43.20;;;;;;4994461;28;20072;-72
2022/03/31 12:47:24;;;;;;;5.50;3.20;;;20.90;43.00;;;;;;5011438;28;20127;-72
2022/03/31 12:49:50;;;;;;;4.20;2.92;;;20.90;43.60;;;;;;4993852;28;20038;-72
2022/03/31 12:52:22;;;;;;;6.13;2.90;;;20.90;43.10;;;;;;4993911;28;20088;-72
2022/03/31 12:54:51;;;;;;;4.78;2.78;;;21.00;43.00;;;;;;4993927;28;20117;-73